Time;durP1;ratioP1;P1;durP2;ratioP2;P2;SDS_P1;SDS_P2;PMS_P1;PMS_P2;Temp;Humidity;BMP_temperature;BMP_pressure;BME280_temperature;BME280_humidity;BME280_pressure;Samples;Min_cycle;Max_cycle;Signal;HPM_P1;HPM_P2
2021/03/29 00:00:25;;;;;;;58.15;35.65;;;205.20;1817.60;;;;;;5059402;28;20028;-83
2021/03/29 00:02:52;;;;;;;62.60;35.63;;;205.10;1843.20;;;;;;5057924;28;20052;-82
2021/03/29 00:05:23;;;;;;;73.70;42.17;;;205.20;1817.60;;;;;;5058986;28;20503;-82
2021/03/29 00:07:53;;;;;;;74.57;41.20;;;205.30;1792.00;;;;;;5042347;28;20044;-82
2021/03/29 00:10:19;;;;;;;88.20;48.88;;;205.30;1817.60;;;;;;5039126;28;20032;-82
2021/03/29 00:12:48;;;;;;;88.13;48.83;;;205.30;1817.60;;;;;;5039118;28;20408;-83
2021/03/29 00:15:18;;;;;;;118.10;62.72;;;205.20;1868.80;;;;;;5039905;28;20037;-83
2021/03/29 00:17:44;;;;;;;127.25;74.03;;;205.20;1843.20;;;;;;5038794;28;20064;-83
2021/03/29 00:20:31;;;;;;;116.28;65.65;;;205.20;1843.20;;;;;;5039051;28;20120;-82
2021/03/29 00:22:58;;;;;;;89.10;50.47;;;205.20;1843.20;;;;;;5038619;28;20030;-83
2021/03/29 00:25:27;;;;;;;78.72;43.35;;;205.00;1868.80;;;;;;5039037;28;20036;-82
2021/03/29 00:27:52;;;;;;;53.47;29.35;;;205.20;1868.80;;;;;;5038470;28;20040;-83
2021/03/29 00:30:25;;;;;;;47.75;26.02;;;205.00;1868.80;;;;;;5039008;28;20055;-82
2021/03/29 00:32:51;;;;;;;38.10;19.48;;;205.00;1843.20;;;;;;5038626;28;20041;-82
2021/03/29 00:35:21;;;;;;;24.48;14.48;;;204.80;1817.60;;;;;;5038056;28;20032;-82
2021/03/29 00:37:53;;;;;;;22.00;11.88;;;205.00;1792.00;;;;;;5038688;28;20024;-83
2021/03/29 00:40:20;;;;;;;26.30;13.43;;;205.00;1766.40;;;;;;5041279;28;20025;-82
2021/03/29 00:42:49;;;;;;;30.05;14.70;;;205.00;1766.40;;;;;;5040925;28;20171;-83
2021/03/29 00:45:19;;;;;;;30.80;17.23;;;205.00;1766.40;;;;;;5039625;28;20029;-84
2021/03/29 00:47:47;;;;;;;28.80;15.35;;;204.90;1792.00;;;;;;5042011;28;20056;-83
2021/03/29 00:50:50;;;;;;;34.25;19.55;;;204.80;1843.20;;;;;;5076971;28;20086;-83
2021/03/29 00:53:18;;;;;;;37.00;17.20;;;204.80;1843.20;;;;;;4962642;28;20101;-84
2021/03/29 00:55:46;;;;;;;32.92;17.25;;;204.90;1792.00;;;;;;4960414;28;20026;-83
2021/03/29 00:58:14;;;;;;;34.83;17.38;;;204.90;1792.00;;;;;;4959124;28;20045;-84
2021/03/29 01:01:06;;;;;;;34.80;18.00;;;204.80;1817.60;;;;;;4959378;28;20054;-84
2021/03/29 01:03:36;;;;;;;51.25;25.00;;;204.80;1817.60;;;;;;4975143;28;20039;-83
2021/03/29 01:06:22;;;;;;;76.20;41.17;;;180.00;1868.80;;;;;;4959722;28;20035;-83
2021/03/29 01:08:54;;;;;;;86.63;49.15;;;179.80;1920.00;;;;;;4974863;28;20039;-83
2021/03/29 01:11:32;;;;;;;86.80;49.08;;;179.90;1920.00;;;;;;4975493;28;20038;-84
2021/03/29 01:14:20;;;;;;;73.60;41.15;;;179.90;1945.60;;;;;;4976959;28;20035;-83
2021/03/29 01:16:59;;;;;;;63.58;33.88;;;179.90;1971.20;;;;;;4960363;28;20051;-83
2021/03/29 01:20:06;;;;;;;63.25;36.67;;;180.00;1996.80;;;;;;4960849;28;20059;-83
2021/03/29 01:22:36;;;;;;;45.88;25.27;;;180.10;1945.60;;;;;;4919177;29;20075;-83
2021/03/29 01:25:14;;;;;;;44.03;22.48;;;180.00;1945.60;;;;;;4903878;29;20499;-83
2021/03/29 01:28:00;;;;;;;41.22;24.92;;;179.90;1971.20;;;;;;4903215;29;20044;-83
2021/03/29 01:30:31;;;;;;;35.47;20.80;;;179.90;1971.20;;;;;;4974775;28;20068;-83
2021/03/29 01:32:59;;;;;;;39.83;20.67;;;179.90;1971.20;;;;;;5015711;28;20036;-83
2021/03/29 01:35:29;;;;;;;32.75;18.77;;;179.90;1945.60;;;;;;5015137;28;20036;-83
2021/03/29 01:37:56;;;;;;;25.88;13.23;;;180.00;1945.60;;;;;;4997631;28;20092;-83
2021/03/29 01:40:22;;;;;;;20.75;11.75;;;180.00;1920.00;;;;;;5014352;28;20048;-85
2021/03/29 01:42:49;;;;;;;16.70;9.70;;;180.10;1894.40;;;;;;5013683;28;20032;-84
2021/03/29 01:45:17;;;;;;;14.88;8.93;;;180.00;1894.40;;;;;;5013815;28;20052;-83
2021/03/29 01:47:44;;;;;;;16.42;10.73;;;180.10;1894.40;;;;;;5012545;28;20046;-83
2021/03/29 01:50:12;;;;;;;18.15;8.55;;;180.10;1868.80;;;;;;5013971;28;20054;-82
2021/03/29 01:52:39;;;;;;;19.45;10.18;;;180.10;1868.80;;;;;;5013353;28;20117;-83
2021/03/29 01:55:08;;;;;;;19.38;12.48;;;180.10;1894.40;;;;;;5014265;28;20466;-84
2021/03/29 01:57:34;;;;;;;17.83;10.10;;;180.10;1868.80;;;;;;5013712;28;20157;-83
2021/03/29 02:00:04;;;;;;;18.73;9.45;;;180.10;1868.80;;;;;;5070621;28;20171;-84
2021/03/29 02:02:30;;;;;;;23.30;11.18;;;180.10;1868.80;;;;;;5057181;28;20392;-84
2021/03/29 02:04:56;;;;;;;29.17;13.25;;;180.10;1843.20;;;;;;5079327;28;20028;-84
2021/03/29 02:07:22;;;;;;;30.65;15.52;;;179.70;1945.60;;;;;;5060858;28;20037;-84
2021/03/29 02:09:48;;;;;;;20.98;10.73;;;179.80;1945.60;;;;;;5063919;28;20024;-84
2021/03/29 02:12:14;;;;;;;21.70;10.10;;;179.70;1920.00;;;;;;5058107;28;20025;-84
2021/03/29 02:14:41;;;;;;;22.73;12.60;;;179.80;1945.60;;;;;;5055195;28;20036;-84
2021/03/29 02:17:09;;;;;;;29.30;17.88;;;179.40;2022.40;;;;;;5053125;28;20132;-84
2021/03/29 02:19:37;;;;;;;31.85;15.55;;;154.50;2099.20;;;;;;5054479;28;20029;-83
2021/03/29 02:22:04;;;;;;;29.35;14.30;;;179.20;2073.60;;;;;;5053369;28;20583;-84
2021/03/29 02:24:31;;;;;;;29.40;15.93;;;179.20;2073.60;;;;;;5053028;28;20481;-84
2021/03/29 02:26:58;;;;;;;41.95;23.13;;;179.40;2048.00;;;;;;5053353;28;20025;-84
2021/03/29 02:29:28;;;;;;;33.83;19.02;;;179.50;2022.40;;;;;;5053225;28;20068;-84
2021/03/29 02:31:55;;;;;;;43.20;20.60;;;179.70;1996.80;;;;;;5056248;28;20025;-84
2021/03/29 02:34:23;;;;;;;36.63;19.10;;;179.80;1971.20;;;;;;5056292;28;20067;-84
2021/03/29 02:36:50;;;;;;;35.67;19.30;;;179.90;1996.80;;;;;;5056364;28;20020;-84
2021/03/29 02:39:16;;;;;;;37.22;19.33;;;180.00;1996.80;;;;;;5052964;28;20087;-84
2021/03/29 02:41:43;;;;;;;51.05;22.67;;;180.10;1996.80;;;;;;5072902;28;20480;-84
2021/03/29 02:44:11;;;;;;;42.05;23.45;;;180.10;1996.80;;;;;;5052673;28;20427;-83
2021/03/29 02:46:37;;;;;;;45.33;25.52;;;180.10;2022.40;;;;;;5054139;28;20455;-85
2021/03/29 02:49:05;;;;;;;40.70;24.95;;;204.90;1971.20;;;;;;5052828;28;20127;-83
2021/03/29 02:51:34;;;;;;;58.92;29.35;;;204.80;1971.20;;;;;;5037316;28;20033;-83
2021/03/29 02:54:05;;;;;;;48.30;29.17;;;180.10;1996.80;;;;;;5052755;28;20060;-82
2021/03/29 02:56:43;;;;;;;45.33;25.75;;;204.80;1996.80;;;;;;5053482;28;20182;-83
2021/03/29 02:59:15;;;;;;;39.90;22.30;;;180.10;1971.20;;;;;;5052660;28;20029;-83
2021/03/29 03:01:42;;;;;;;42.55;21.08;;;204.80;1945.60;;;;;;5054717;28;20123;-83
2021/03/29 03:04:12;;;;;;;32.25;18.67;;;180.10;1920.00;;;;;;5051201;28;20136;-83
2021/03/29 03:06:39;;;;;;;26.13;16.67;;;180.10;1945.60;;;;;;5054712;28;20071;-83
2021/03/29 03:09:08;;;;;;;29.83;16.55;;;179.90;1920.00;;;;;;5052386;28;20124;-83
2021/03/29 03:11:34;;;;;;;27.42;15.52;;;180.00;1920.00;;;;;;5053508;28;20063;-82
2021/03/29 03:14:06;;;;;;;26.23;13.82;;;179.90;1920.00;;;;;;5035719;28;20131;-83
2021/03/29 03:16:36;;;;;;;20.42;11.48;;;180.00;1920.00;;;;;;5071067;28;20480;-82
2021/03/29 03:19:02;;;;;;;19.02;10.75;;;179.80;1945.60;;;;;;5052344;28;20025;-83
2021/03/29 03:21:31;;;;;;;20.10;10.52;;;179.90;1971.20;;;;;;5052714;28;20029;-82
2021/03/29 03:23:57;;;;;;;23.50;11.60;;;179.80;1996.80;;;;;;5051992;28;20035;-83
2021/03/29 03:26:25;;;;;;;20.42;10.05;;;179.90;1971.20;;;;;;5052404;28;20057;-82
2021/03/29 03:28:51;;;;;;;22.77;10.75;;;179.90;1971.20;;;;;;5052261;28;20033;-82
2021/03/29 03:31:18;;;;;;;27.30;12.52;;;179.90;1971.20;;;;;;5052493;28;20029;-83
2021/03/29 03:33:45;;;;;;;17.33;11.38;;;179.90;1945.60;;;;;;5054664;28;20056;-83
2021/03/29 03:36:12;;;;;;;16.65;10.48;;;179.80;1945.60;;;;;;5052232;28;20075;-82
2021/03/29 03:38:43;;;;;;;18.83;11.13;;;179.80;1945.60;;;;;;5053865;28;20029;-83
2021/03/29 03:41:14;;;;;;;21.50;13.07;;;179.80;1945.60;;;;;;5052659;28;20028;-81
2021/03/29 03:43:50;;;;;;;19.45;11.05;;;179.80;1971.20;;;;;;5054353;28;20083;-83
2021/03/29 03:46:36;;;;;;;20.80;11.07;;;179.70;1945.60;;;;;;5051504;28;20119;-83
2021/03/29 03:49:14;;;;;;;22.67;11.15;;;179.60;1971.20;;;;;;5052062;28;20087;-84
2021/03/29 03:51:41;;;;;;;22.17;10.40;;;179.60;1971.20;;;;;;5054298;28;20088;-83
2021/03/29 03:54:09;;;;;;;17.55;10.45;;;179.60;1945.60;;;;;;5052055;28;20036;-84
2021/03/29 03:56:37;;;;;;;20.77;11.02;;;179.60;1971.20;;;;;;5053431;28;20064;-84
2021/03/29 03:59:04;;;;;;;34.25;18.08;;;179.40;2048.00;;;;;;5051937;28;20094;-84
2021/03/29 04:01:55;;;;;;;42.60;23.63;;;154.30;2124.80;;;;;;5070500;28;20033;-84
2021/03/29 04:04:21;;;;;;;44.90;21.77;;;154.00;2150.40;;;;;;5052014;28;20453;-82
2021/03/29 04:06:47;;;;;;;39.27;22.33;;;153.90;2176.00;;;;;;5054999;28;20025;-82
2021/03/29 04:09:13;;;;;;;40.23;20.90;;;153.90;2176.00;;;;;;5051909;28;20052;-83
2021/03/29 04:11:38;;;;;;;39.17;21.97;;;154.00;2176.00;;;;;;5055622;28;20029;-83
2021/03/29 04:14:04;;;;;;;60.53;35.20;;;153.90;2176.00;;;;;;5055532;28;20465;-83
2021/03/29 04:16:30;;;;;;;63.53;36.30;;;153.70;2201.60;;;;;;5056018;28;20552;-83
2021/03/29 04:18:56;;;;;;;62.77;39.00;;;153.70;2176.00;;;;;;5038732;28;20037;-83
2021/03/29 04:21:22;;;;;;;67.60;38.47;;;153.90;2150.40;;;;;;5055463;28;20530;-84
2021/03/29 04:23:47;;;;;;;72.00;42.13;;;154.00;2124.80;;;;;;5058372;28;20029;-83
2021/03/29 04:26:13;;;;;;;64.97;36.73;;;154.10;2073.60;;;;;;5056465;28;20060;-84
2021/03/29 04:28:39;;;;;;;63.30;37.03;;;154.20;2048.00;;;;;;5057430;28;20072;-83
2021/03/29 04:31:04;;;;;;;64.93;34.33;;;154.20;2073.60;;;;;;5055320;28;20032;-84
2021/03/29 04:33:30;;;;;;;68.13;36.13;;;154.20;2073.60;;;;;;5056144;28;20044;-82
2021/03/29 04:35:56;;;;;;;66.53;33.20;;;154.20;2073.60;;;;;;5056101;28;20114;-83
2021/03/29 04:38:22;;;;;;;56.90;31.03;;;154.10;2099.20;;;;;;5055892;28;20492;-82
2021/03/29 04:40:47;;;;;;;63.43;29.80;;;154.10;2099.20;;;;;;5058107;28;20029;-83
2021/03/29 04:43:13;;;;;;;61.70;34.33;;;154.10;2099.20;;;;;;5054853;28;20025;-84
2021/03/29 04:45:40;;;;;;;60.40;33.97;;;154.00;2099.20;;;;;;5077772;28;20166;-83
2021/03/29 04:48:06;;;;;;;72.73;37.30;;;154.10;2124.80;;;;;;5058381;28;20037;-84
2021/03/29 04:50:32;;;;;;;58.40;32.17;;;154.00;2124.80;;;;;;5058255;28;20024;-84
2021/03/29 04:52:57;;;;;;;57.40;31.20;;;154.00;2124.80;;;;;;5058258;28;20028;-83
2021/03/29 04:55:23;;;;;;;65.03;37.40;;;154.00;2124.80;;;;;;5075885;28;20563;-84
2021/03/29 04:57:49;;;;;;;74.33;40.63;;;154.00;2124.80;;;;;;5078374;28;20026;-83
2021/03/29 05:00:15;;;;;;;58.83;34.30;;;154.00;2124.80;;;;;;5078821;28;20032;-83
2021/03/29 05:02:41;;;;;;;75.10;39.97;;;154.00;2124.80;;;;;;5078847;28;20025;-84
2021/03/29 05:05:08;;;;;;;69.60;39.87;;;154.00;2124.80;;;;;;5080035;28;20024;-82
2021/03/29 05:07:35;;;;;;;72.90;38.07;;;154.00;2099.20;;;;;;5084081;28;20032;-83
2021/03/29 05:10:02;;;;;;;62.60;29.07;;;154.00;2099.20;;;;;;5112665;28;20030;-85
2021/03/29 05:12:28;;;;;;;48.20;27.27;;;153.90;2099.20;;;;;;5094652;28;20024;-86
2021/03/29 05:14:54;;;;;;;42.20;24.23;;;153.90;2099.20;;;;;;5096921;28;20039;-86
2021/03/29 05:17:25;;;;;;;48.77;26.27;;;153.90;2099.20;;;;;;5097276;28;20053;-85
2021/03/29 05:19:50;;;;;;;48.97;25.63;;;153.80;2099.20;;;;;;5097986;28;20039;-87
2021/03/29 05:22:16;;;;;;;46.23;27.00;;;153.90;2099.20;;;;;;5078684;28;20032;-86
2021/03/29 05:24:42;;;;;;;69.63;40.70;;;154.00;2073.60;;;;;;5076560;28;20541;-86
2021/03/29 05:27:08;;;;;;;55.40;33.77;;;154.10;2048.00;;;;;;5077861;28;20059;-85
2021/03/29 05:29:43;;;;;;;52.70;28.47;;;154.10;2048.00;;;;;;5078275;28;20034;-86
2021/03/29 05:32:20;;;;;;;38.93;22.37;;;154.00;2073.60;;;;;;5073701;28;20115;-87
2021/03/29 05:34:49;;;;;;;37.43;20.33;;;153.90;2124.80;;;;;;5057704;28;20060;-87
2021/03/29 05:37:16;;;;;;;31.07;18.60;;;153.80;2176.00;;;;;;5058166;28;20020;-87
2021/03/29 05:39:43;;;;;;;34.57;19.80;;;153.90;2150.40;;;;;;5057658;28;20038;-86
2021/03/29 05:42:09;;;;;;;37.37;20.47;;;154.10;2124.80;;;;;;5058225;28;20086;-87
2021/03/29 05:44:37;;;;;;;33.23;20.13;;;154.10;2124.80;;;;;;5058360;28;20040;-86
2021/03/29 05:47:03;;;;;;;33.17;19.40;;;154.20;2099.20;;;;;;5058542;28;20040;-87
2021/03/29 05:49:31;;;;;;;31.87;18.90;;;154.30;2099.20;;;;;;5123005;23;20048;-87
2021/03/29 05:51:57;;;;;;;35.30;21.77;;;154.30;2099.20;;;;;;5097660;28;20032;-86
2021/03/29 05:54:35;;;;;;;38.97;22.42;;;154.40;2073.60;;;;;;5099515;28;20083;-86
2021/03/29 05:57:01;;;;;;;35.80;20.47;;;154.20;2124.80;;;;;;5097137;28;20118;-87
2021/03/29 05:59:42;;;;;;;29.97;22.93;;;154.30;2073.60;;;;;;5097220;28;20105;-89
2021/03/29 06:02:46;;;;;;;33.38;22.08;;;154.50;2048.00;;;;;;5081119;28;20262;-85
2021/03/29 06:05:40;;;;;;;;;;;154.50;2048.00;;;;;;5058267;28;20459;-86
2021/03/29 06:08:15;;;;;;;33.47;19.47;;;179.30;2048.00;;;;;;5075104;28;20352;-87
2021/03/29 06:10:44;;;;;;;35.33;21.03;;;179.40;2022.40;;;;;;5057132;28;20017;-87
2021/03/29 06:13:30;;;;;;;36.65;19.95;;;179.60;2022.40;;;;;;5057183;28;20079;-88
2021/03/29 06:16:20;;;;;;;26.80;16.33;;;179.70;1996.80;;;;;;5057334;28;20030;-87
2021/03/29 06:18:58;;;;;;;26.50;17.00;;;179.80;1971.20;;;;;;5057574;28;20049;-87
2021/03/29 06:21:42;;;;;;;30.08;19.17;;;179.90;1971.20;;;;;;5057336;28;20158;-87
2021/03/29 06:24:08;;;;;;;36.07;19.67;;;180.00;1945.60;;;;;;5056708;28;20025;-87
2021/03/29 06:26:41;;;;;;;45.53;26.98;;;180.10;1971.20;;;;;;5057273;28;20028;-87
2021/03/29 06:29:29;;;;;;;41.53;21.45;;;204.80;1945.60;;;;;;5056942;28;20016;-87
2021/03/29 06:31:57;;;;;;;29.50;16.55;;;204.90;1920.00;;;;;;5059041;28;20081;-87
2021/03/29 06:34:45;;;;;;;31.58;16.90;;;205.00;1894.40;;;;;;5056172;28;20116;-87
2021/03/29 06:37:26;;;;;;;32.33;16.63;;;205.20;1868.80;;;;;;5056414;28;20044;-86
2021/03/29 06:39:53;;;;;;;32.65;21.50;;;205.20;1843.20;;;;;;5056281;28;20028;-87
2021/03/29 06:42:34;;;;;;;48.30;30.90;;;205.30;1843.20;;;;;;5056878;28;20138;-87
2021/03/29 06:45:14;;;;;;;26.38;16.33;;;205.40;1843.20;;;;;;5056296;28;20044;-87
2021/03/29 06:47:40;;;;;;;31.65;17.30;;;205.50;1843.20;;;;;;5056840;28;20035;-87
2021/03/29 06:50:52;;;;;;;27.50;16.40;;;205.60;1817.60;;;;;;5065672;28;20052;-87
2021/03/29 06:53:27;;;;;;;29.80;16.85;;;205.70;1817.60;;;;;;5077848;28;20090;-86
2021/03/29 06:56:24;;;;;;;32.83;19.98;;;230.40;1817.60;;;;;;5096958;28;20032;-86
2021/03/29 06:58:55;;;;;;;35.25;19.58;;;230.50;1817.60;;;;;;5079115;28;20123;-86
2021/03/29 07:01:25;;;;;;;30.40;20.00;;;230.60;1766.40;;;;;;5078200;28;20105;-85
2021/03/29 07:03:53;;;;;;;41.72;21.88;;;230.80;1792.00;;;;;;5076571;28;20090;-86
2021/03/29 07:06:27;;;;;;;33.80;20.77;;;230.80;1792.00;;;;;;5076203;28;20032;-85
2021/03/29 07:09:03;;;;;;;44.10;23.15;;;230.80;1740.80;;;;;;5076573;28;20020;-84
2021/03/29 07:11:28;;;;;;;40.63;20.70;;;231.00;1766.40;;;;;;5088006;28;20242;-84
2021/03/29 07:13:57;;;;;;;36.97;21.88;;;231.10;1740.80;;;;;;5095610;28;20020;-83
2021/03/29 07:16:25;;;;;;;37.78;19.77;;;231.20;1740.80;;;;;;5096227;28;20471;-82
2021/03/29 07:18:54;;;;;;;24.50;15.02;;;256.00;1689.60;;;;;;5113749;28;20031;-83
2021/03/29 07:21:21;;;;;;;30.98;19.17;;;256.10;1689.60;;;;;;5099677;28;20020;-83
2021/03/29 07:23:47;;;;;;;27.35;16.05;;;256.30;1638.40;;;;;;5106154;28;20020;-84
2021/03/29 07:26:47;;;;;;;23.48;14.32;;;256.40;1587.20;;;;;;5106804;28;20055;-86
2021/03/29 07:29:32;;;;;;;32.20;17.65;;;256.50;1612.80;;;;;;5001458;28;20034;-85
2021/03/29 07:32:00;;;;;;;27.77;15.35;;;256.70;1612.80;;;;;;4996296;28;20026;-84
2021/03/29 07:34:47;;;;;;;21.48;13.05;;;256.80;1587.20;;;;;;4996205;28;20030;-85
2021/03/29 07:37:27;;;;;;;23.13;15.38;;;281.60;1587.20;;;;;;4995621;28;20030;-84
2021/03/29 07:39:54;;;;;;;23.17;12.40;;;281.80;1638.40;;;;;;4995985;28;20065;-86
2021/03/29 07:42:25;;;;;;;23.45;13.10;;;282.00;1587.20;;;;;;5012587;28;20037;-86
2021/03/29 07:44:59;;;;;;;22.80;13.93;;;282.20;1561.60;;;;;;5012338;28;20030;-85
2021/03/29 07:47:43;;;;;;;20.30;13.15;;;282.40;1561.60;;;;;;4998712;28;20486;-86
2021/03/29 07:50:15;;;;;;;19.88;11.25;;;307.20;1484.80;;;;;;4997892;28;20104;-85
2021/03/29 07:52:43;;;;;;;20.75;12.43;;;307.30;1484.80;;;;;;4999187;28;20042;-85
2021/03/29 07:55:23;;;;;;;20.80;11.63;;;307.50;1510.40;;;;;;4999604;28;20033;-86
2021/03/29 07:57:55;;;;;;;18.92;10.60;;;307.70;1433.60;;;;;;4994506;28;20052;-85
2021/03/29 08:00:24;;;;;;;20.25;12.35;;;307.90;1408.00;;;;;;4987011;28;20034;-85
2021/03/29 08:02:50;;;;;;;27.05;13.05;;;308.10;1382.40;;;;;;4993328;28;20128;-85
2021/03/29 08:05:44;;;;;;;27.85;17.60;;;332.90;1459.20;;;;;;5020509;28;20058;-85
2021/03/29 08:08:26;;;;;;;24.65;13.50;;;333.00;1356.80;;;;;;5109528;28;20020;-83
2021/03/29 08:11:14;;;;;;;21.00;11.05;;;333.20;1382.40;;;;;;5117478;28;20051;-84
2021/03/29 08:13:42;;;;;;;15.10;8.38;;;333.30;1280.00;;;;;;5112836;28;20420;-82
2021/03/29 08:16:08;;;;;;;22.08;10.85;;;333.50;1305.60;;;;;;5108027;28;20024;-82
2021/03/29 08:19:11;;;;;;;18.67;12.70;;;333.70;1280.00;;;;;;5110637;28;20028;-85
2021/03/29 08:21:46;;;;;;;23.23;12.00;;;358.40;1305.60;;;;;;5118185;28;20019;-88
2021/03/29 08:24:28;;;;;;;19.67;12.75;;;333.60;1228.80;;;;;;5100218;28;20035;-86
2021/03/29 08:27:02;;;;;;;22.10;11.38;;;333.60;1203.20;;;;;;5100287;28;20030;-83
2021/03/29 08:29:31;;;;;;;20.17;10.18;;;358.50;1203.20;;;;;;5096246;28;20097;-85
2021/03/29 08:32:04;;;;;;;20.10;10.50;;;358.60;1177.60;;;;;;5118175;28;20046;-88
2021/03/29 08:34:40;;;;;;;18.80;9.05;;;358.50;1152.00;;;;;;5098431;28;20024;-86
2021/03/29 08:37:11;;;;;;;13.43;8.18;;;358.40;1177.60;;;;;;5114612;28;20089;-87
2021/03/29 08:39:39;;;;;;;15.52;6.47;;;358.50;1203.20;;;;;;5099286;28;20032;-86
2021/03/29 08:42:06;;;;;;;13.25;7.50;;;358.80;1228.80;;;;;;5098419;28;20036;-87
2021/03/29 08:44:35;;;;;;;16.52;9.32;;;358.70;1152.00;;;;;;5098725;28;20031;-86
2021/03/29 08:47:06;;;;;;;11.82;7.35;;;358.80;1126.40;;;;;;5099214;28;20028;-86
2021/03/29 08:49:33;;;;;;;15.55;8.73;;;358.50;1152.00;;;;;;5098993;28;20056;-88
2021/03/29 08:51:59;;;;;;;19.00;10.07;;;358.80;1203.20;;;;;;5095590;28;20032;-89
2021/03/29 08:54:25;;;;;;;17.50;9.90;;;359.10;1177.60;;;;;;5095286;28;20028;-89
2021/03/29 08:56:54;;;;;;;17.95;9.45;;;359.20;1177.60;;;;;;5090210;28;20020;-90
2021/03/29 08:59:30;;;;;;;19.65;9.68;;;359.20;1203.20;;;;;;5098750;28;20055;-88
2021/03/29 09:01:56;;;;;;;19.85;11.23;;;384.00;1177.60;;;;;;5099534;28;20421;-88
2021/03/29 09:04:24;;;;;;;20.00;9.57;;;384.10;1152.00;;;;;;5101038;28;20024;-88
2021/03/29 09:07:05;;;;;;;14.73;7.47;;;384.20;1100.80;;;;;;5104612;28;20074;-88
2021/03/29 09:09:34;;;;;;;19.80;9.43;;;359.30;1100.80;;;;;;5116903;28;20056;-88
2021/03/29 09:12:00;;;;;;;13.93;8.68;;;384.10;1075.20;;;;;;5089653;28;20760;-89
2021/03/29 09:14:26;;;;;;;17.02;7.93;;;384.40;1075.20;;;;;;5099261;28;20027;-91
2021/03/29 09:16:58;;;;;;;15.38;6.93;;;384.60;1049.60;;;;;;5098596;28;20020;-92
2021/03/29 09:19:24;;;;;;;14.13;6.97;;;384.10;1075.20;;;;;;5098719;28;20028;-87
2021/03/29 09:22:09;;;;;;;15.45;7.57;;;384.30;1049.60;;;;;;5098423;28;20050;-87
2021/03/29 09:24:35;;;;;;;25.23;14.95;;;384.10;1075.20;;;;;;5090233;28;20028;-86
2021/03/29 09:27:10;;;;;;;12.50;8.38;;;384.50;1049.60;;;;;;5078196;28;20047;-85
2021/03/29 09:29:41;;;;;;;11.90;7.45;;;409.60;1049.60;;;;;;5084920;28;20029;-85
2021/03/29 09:32:25;;;;;;;16.05;8.23;;;410.00;998.40;;;;;;5098379;28;20030;-86
2021/03/29 09:34:53;;;;;;;20.95;13.23;;;410.40;1049.60;;;;;;5097206;28;20044;-86
2021/03/29 09:37:27;;;;;;;17.00;9.95;;;410.20;998.40;;;;;;5080586;28;20105;-89
2021/03/29 09:40:08;;;;;;;17.13;7.63;;;410.20;972.80;;;;;;5101205;28;20032;-90
2021/03/29 09:42:41;;;;;;;17.05;9.85;;;410.30;972.80;;;;;;5097284;28;20035;-88
2021/03/29 09:45:10;;;;;;;15.15;9.13;;;410.30;972.80;;;;;;5090389;28;20003;-87
2021/03/29 09:47:36;;;;;;;13.77;8.70;;;409.90;972.80;;;;;;5115875;28;20019;-88
2021/03/29 09:50:04;;;;;;;12.05;7.97;;;410.50;1024.00;;;;;;5113180;28;20047;-89
2021/03/29 09:52:42;;;;;;;11.77;7.47;;;435.50;998.40;;;;;;5101077;28;20023;-91
2021/03/29 09:55:12;;;;;;;11.38;7.13;;;435.70;1049.60;;;;;;5110336;28;20024;-87
2021/03/29 09:57:45;;;;;;;13.88;7.43;;;435.90;947.20;;;;;;5121992;28;20111;-88
2021/03/29 10:00:12;;;;;;;;;;;436.10;921.60;;;;;;5122601;28;20008;-88
2021/03/29 10:02:39;;;;;;;13.98;6.32;;;435.90;972.80;;;;;;5122539;28;19915;-87
2021/03/29 10:05:08;;;;;;;9.05;6.40;;;460.80;1049.60;;;;;;5122307;28;20037;-89
2021/03/29 10:07:34;;;;;;;17.60;9.45;;;461.10;998.40;;;;;;5120754;28;20028;-88
2021/03/29 10:10:09;;;;;;;14.57;7.95;;;461.20;972.80;;;;;;5121149;28;20030;-88
2021/03/29 10:12:36;;;;;;;15.43;7.65;;;461.20;998.40;;;;;;5119303;28;20042;-89
2021/03/29 10:15:13;;;;;;;15.15;7.22;;;461.30;998.40;;;;;;5101355;28;20028;-88
2021/03/29 10:17:40;;;;;;;20.55;9.65;;;461.40;998.40;;;;;;5101541;28;20065;-89
2021/03/29 10:20:08;;;;;;;15.32;8.60;;;461.30;947.20;;;;;;5100817;28;20040;-89
2021/03/29 10:22:35;;;;;;;17.05;8.40;;;461.10;947.20;;;;;;5108483;28;20024;-88
2021/03/29 10:25:17;;;;;;;15.85;9.30;;;460.80;972.80;;;;;;5108026;28;20491;-89
2021/03/29 10:27:52;;;;;;;15.40;8.98;;;435.40;921.60;;;;;;5105915;28;20027;-88
2021/03/29 10:30:27;;;;;;;12.07;8.23;;;436.00;947.20;;;;;;5105343;28;20028;-89
2021/03/29 10:32:55;;;;;;;11.70;8.27;;;461.10;947.20;;;;;;5097814;28;20026;-86
2021/03/29 10:35:23;;;;;;;9.80;7.53;;;461.10;921.60;;;;;;5100257;28;20028;-87
2021/03/29 10:37:49;;;;;;;14.45;7.28;;;461.50;896.00;;;;;;5114540;28;20031;-87
2021/03/29 10:40:15;;;;;;;12.38;7.25;;;461.60;998.40;;;;;;5116856;28;20046;-88
2021/03/29 10:42:41;;;;;;;13.18;8.77;;;486.50;921.60;;;;;;5136381;28;20048;-87
2021/03/29 10:45:09;;;;;;;12.32;6.97;;;436.10;870.40;;;;;;5127382;28;20027;-88
2021/03/29 10:47:35;;;;;;;14.27;7.47;;;461.30;921.60;;;;;;5108422;28;20028;-87
2021/03/29 10:50:00;;;;;;;14.30;7.07;;;461.50;972.80;;;;;;5113434;28;20097;-87
2021/03/29 10:52:26;;;;;;;18.50;8.32;;;461.70;947.20;;;;;;5117578;28;20027;-88
2021/03/29 10:55:01;;;;;;;9.40;6.63;;;486.50;844.80;;;;;;5121543;28;20034;-87
2021/03/29 10:57:27;;;;;;;13.73;7.00;;;486.40;896.00;;;;;;5150938;22;20090;-88
2021/03/29 10:59:52;;;;;;;13.43;7.78;;;486.70;921.60;;;;;;5079143;28;20545;-88
2021/03/29 11:02:18;;;;;;;13.05;7.82;;;486.60;947.20;;;;;;5078253;28;20086;-87
2021/03/29 11:04:44;;;;;;;13.32;6.57;;;486.80;896.00;;;;;;5078735;28;20063;-86
2021/03/29 11:07:10;;;;;;;10.63;7.35;;;486.60;921.60;;;;;;5077953;28;20024;-86
2021/03/29 11:09:36;;;;;;;22.05;7.20;;;487.10;998.40;;;;;;5077228;28;20107;-86
2021/03/29 11:12:02;;;;;;;12.50;6.43;;;487.20;998.40;;;;;;5074454;28;20032;-87
2021/03/29 11:14:28;;;;;;;14.02;6.68;;;487.30;972.80;;;;;;5076073;28;20035;-86
2021/03/29 11:16:56;;;;;;;11.15;7.18;;;512.40;921.60;;;;;;5094441;28;20032;-87
2021/03/29 11:19:22;;;;;;;11.55;5.75;;;512.30;921.60;;;;;;5076115;28;20032;-89
2021/03/29 11:21:50;;;;;;;10.80;5.93;;;512.60;844.80;;;;;;5078305;28;20036;-85
2021/03/29 11:24:15;;;;;;;8.50;5.30;;;512.90;896.00;;;;;;5080511;28;20077;-86
2021/03/29 11:26:41;;;;;;;12.15;6.45;;;537.70;870.40;;;;;;5080250;28;20016;-85
2021/03/29 11:29:08;;;;;;;10.32;5.50;;;512.90;844.80;;;;;;5074873;28;20502;-85
2021/03/29 11:31:37;;;;;;;11.73;6.00;;;537.80;896.00;;;;;;5097252;28;20020;-84
2021/03/29 11:34:03;;;;;;;9.50;6.20;;;537.90;896.00;;;;;;5077525;28;20034;-85
2021/03/29 11:36:29;;;;;;;9.50;5.55;;;537.90;844.80;;;;;;5077848;28;20149;-85
2021/03/29 11:38:56;;;;;;;9.10;5.30;;;512.10;844.80;;;;;;5074483;28;20123;-85
2021/03/29 11:41:21;;;;;;;10.73;5.85;;;512.10;896.00;;;;;;5067775;28;20073;-85
2021/03/29 11:43:48;;;;;;;10.43;5.53;;;512.60;896.00;;;;;;5074655;28;20025;-86
2021/03/29 11:46:14;;;;;;;11.30;5.78;;;537.60;921.60;;;;;;5072388;28;20528;-84
2021/03/29 11:48:39;;;;;;;8.80;5.43;;;512.90;819.20;;;;;;5058397;28;20032;-84
2021/03/29 11:51:06;;;;;;;17.08;5.72;;;512.50;819.20;;;;;;5074655;28;20024;-86
2021/03/29 11:53:32;;;;;;;12.73;6.05;;;487.20;870.40;;;;;;5060566;28;20024;-87
2021/03/29 11:55:58;;;;;;;12.38;7.95;;;512.10;870.40;;;;;;5068908;28;20023;-84
2021/03/29 11:58:25;;;;;;;8.95;6.18;;;486.90;896.00;;;;;;5077152;28;20060;-85
2021/03/29 12:01:06;;;;;;;10.40;5.38;;;487.10;921.60;;;;;;5078429;28;20028;-85
2021/03/29 12:03:40;;;;;;;8.43;4.90;;;487.30;870.40;;;;;;5077962;28;20024;-84
2021/03/29 12:06:20;;;;;;;11.23;6.07;;;512.20;870.40;;;;;;5077371;28;20460;-85
2021/03/29 12:14:22;;;;;;;10.43;4.85;;;512.90;844.80;;;;;;5091723;28;20039;-84
2021/03/29 12:16:49;;;;;;;8.77;5.60;;;537.80;844.80;;;;;;5069310;28;20032;-85
2021/03/29 12:19:16;;;;;;;13.57;6.57;;;537.80;844.80;;;;;;5074434;28;20067;-84
2021/03/29 12:21:46;;;;;;;7.22;4.15;;;538.10;896.00;;;;;;5073964;28;20058;-84
2021/03/29 12:24:19;;;;;;;8.35;4.53;;;538.40;844.80;;;;;;5062609;28;20111;-85
2021/03/29 12:26:47;;;;;;;32.72;19.75;;;538.10;793.60;;;;;;5069423;28;20028;-84
2021/03/29 12:29:16;;;;;;;13.55;8.63;;;538.40;793.60;;;;;;5062471;28;20035;-83